createdAt,value
2023-02-23T00:02:22.100Z,9.50
2023-02-23T00:04:50.703Z,9.50
2023-02-23T00:07:21.002Z,9.60
2023-02-23T00:09:51.074Z,9.60
2023-02-23T00:12:21.199Z,9.60
2023-02-23T00:14:49.639Z,9.60
2023-02-23T00:17:20.077Z,9.60
2023-02-23T00:19:49.543Z,9.60
2023-02-23T00:22:18.593Z,9.50
2023-02-23T00:24:48.227Z,9.40
2023-02-23T00:27:20.113Z,9.40
2023-02-23T00:29:51.124Z,9.20
2023-02-23T00:32:21.115Z,9.20
2023-02-23T00:34:50.627Z,9.20
2023-02-23T00:37:19.778Z,9.20
2023-02-23T00:39:50.166Z,9.30
2023-02-23T00:42:18.671Z,9.30
2023-02-23T00:44:48.964Z,9.30
2023-02-23T00:47:19.231Z,9.40
2023-02-23T00:49:51.130Z,9.40
2023-02-23T00:52:20.887Z,9.40
2023-02-23T00:54:49.914Z,9.50
2023-02-23T00:57:18.373Z,9.40
2023-02-23T00:59:47.154Z,9.40
2023-02-23T01:02:18.462Z,9.30
2023-02-23T01:04:47.019Z,9.30
2023-02-23T01:07:15.518Z,9.20
2023-02-23T01:09:44.003Z,9.20
2023-02-23T01:12:12.575Z,9.30
2023-02-23T01:14:42.751Z,9.20
2023-02-23T01:17:12.579Z,9.20
2023-02-23T01:19:42.837Z,9.10
2023-02-23T01:22:11.306Z,9.10
2023-02-23T01:24:43.052Z,9.20
2023-02-23T01:27:11.601Z,9.30
2023-02-23T01:29:40.180Z,9.20
2023-02-23T01:32:09.204Z,9.10
2023-02-23T01:34:37.800Z,9.10
2023-02-23T01:37:08.955Z,9.20
2023-02-23T01:39:37.515Z,9.20
2023-02-23T01:42:06.684Z,9.20
2023-02-23T01:45:14.076Z,9.20
2023-02-23T01:47:42.639Z,9.10
2023-02-23T01:50:12.637Z,9.20
2023-02-23T01:52:42.655Z,9.10
2023-02-23T01:55:14.383Z,9.20
2023-02-23T01:57:43.765Z,9.20
2023-02-23T02:00:15.045Z,9.20
2023-02-23T02:02:43.595Z,9.20
2023-02-23T02:05:14.365Z,9.30
2023-02-23T02:07:49.905Z,9.30
2023-02-23T02:10:38.106Z,9.40
2023-02-23T02:13:08.088Z,9.30
2023-02-23T02:15:42.494Z,9.20
2023-02-23T02:18:23.753Z,9.20
2023-02-23T02:21:19.582Z,9.20
2023-02-23T02:26:51.274Z,9.10
2023-02-23T02:30:10.587Z,9.30
2023-02-23T02:33:12.698Z,9.20
2023-02-23T02:36:13.708Z,9.30
2023-02-23T02:38:54.086Z,9.20
2023-02-23T02:41:35.586Z,9.20
2023-02-23T02:44:13.101Z,9.20
2023-02-23T02:46:48.711Z,9.20
2023-02-23T02:49:27.201Z,9.10
2023-02-23T02:52:01.793Z,9.10
2023-02-23T02:54:37.209Z,9.20
2023-02-23T02:57:07.328Z,9.20
2023-02-23T03:00:02.657Z,9.20
2023-02-23T03:02:51.855Z,9.20
2023-02-23T03:05:40.466Z,9.10
2023-02-23T03:08:35.552Z,9.00
2023-02-23T03:11:26.157Z,9.00
2023-02-23T03:14:27.756Z,9.10
2023-02-23T03:17:21.539Z,9.20
2023-02-23T03:20:15.555Z,9.10
2023-02-23T03:23:09.107Z,9.10
2023-02-23T03:26:07.210Z,9.10
2023-02-23T03:29:01.870Z,9.10
2023-02-23T03:31:57.471Z,9.10
2023-02-23T03:34:50.623Z,9.00
2023-02-23T03:37:42.991Z,9.00
2023-02-23T03:40:35.244Z,9.00
2023-02-23T03:43:25.623Z,9.00
2023-02-23T03:46:16.586Z,9.00
2023-02-23T03:49:06.317Z,9.20
2023-02-23T03:51:55.499Z,9.10
2023-02-23T03:54:49.957Z,9.10
2023-02-23T03:57:39.071Z,9.00
2023-02-23T04:00:31.230Z,9.00
2023-02-23T04:03:18.862Z,9.00
2023-02-23T04:06:06.041Z,9.10
2023-02-23T04:08:55.232Z,9.00
2023-02-23T04:11:46.738Z,9.10
2023-02-23T04:14:19.322Z,9.00
2023-02-23T04:16:48.306Z,9.00
2023-02-23T04:19:18.275Z,8.90
2023-02-23T04:21:46.882Z,9.00
2023-02-23T04:24:15.401Z,9.00
2023-02-23T04:26:44.019Z,9.00
2023-02-23T04:29:13.355Z,9.00
2023-02-23T04:31:42.820Z,8.90
2023-02-23T04:34:11.678Z,8.90
2023-02-23T04:36:42.881Z,8.90
2023-02-23T04:39:11.418Z,8.90
2023-02-23T04:41:39.887Z,8.90
2023-02-23T04:44:11.334Z,8.90
2023-02-23T04:46:39.722Z,9.00
2023-02-23T04:49:08.235Z,9.00
2023-02-23T04:51:37.438Z,8.90
2023-02-23T04:54:09.872Z,8.90
2023-02-23T04:56:39.608Z,8.90
2023-02-23T04:59:08.214Z,8.90
2023-02-23T05:01:37.413Z,9.00
2023-02-23T05:04:06.060Z,9.00
2023-02-23T05:06:34.505Z,9.00
2023-02-23T05:09:03.374Z,8.90
2023-02-23T05:11:33.312Z,8.90
2023-02-23T05:14:01.825Z,8.90
2023-02-23T05:16:30.293Z,8.90
2023-02-23T05:18:59.430Z,9.00
2023-02-23T05:21:27.857Z,9.00
2023-02-23T05:23:57.317Z,9.00
2023-02-23T05:26:25.887Z,8.90
2023-02-23T05:28:57.182Z,8.90
2023-02-23T05:31:26.713Z,9.00
2023-02-23T05:33:55.222Z,8.90
2023-02-23T05:36:23.940Z,9.10
2023-02-23T05:38:52.478Z,9.10
2023-02-23T05:41:23.883Z,8.90
2023-02-23T05:43:53.936Z,9.00
2023-02-23T05:46:26.829Z,9.00
2023-02-23T05:48:58.778Z,9.00
2023-02-23T05:51:28.161Z,8.90
2023-02-23T05:53:56.713Z,8.80
2023-02-23T05:56:25.409Z,8.70
2023-02-23T05:58:56.649Z,8.80
2023-02-23T06:01:30.307Z,8.80
2023-02-23T06:04:03.535Z,8.80
2023-02-23T06:06:33.748Z,8.80
2023-02-23T06:09:04.619Z,8.90
2023-02-23T06:11:33.632Z,8.90
2023-02-23T06:14:02.648Z,8.90
2023-02-23T06:16:37.585Z,8.80
2023-02-23T06:19:16.947Z,8.80
2023-02-23T06:21:50.874Z,8.90
2023-02-23T06:24:25.452Z,8.90
2023-02-23T06:26:54.428Z,8.80
2023-02-23T06:29:25.234Z,8.80
2023-02-23T06:31:57.119Z,8.80
2023-02-23T06:34:30.055Z,8.80
2023-02-23T06:37:09.137Z,8.80
2023-02-23T06:39:46.742Z,8.80
2023-02-23T06:42:23.963Z,8.90
2023-02-23T06:44:53.726Z,8.90
2023-02-23T06:47:24.855Z,8.90
2023-02-23T06:49:55.039Z,8.80
2023-02-23T06:52:28.395Z,8.90
2023-02-23T06:54:57.389Z,8.90
2023-02-23T06:57:27.012Z,8.90
2023-02-23T06:59:56.391Z,8.80
2023-02-23T07:02:30.690Z,8.80
2023-02-23T07:05:00.268Z,8.80
2023-02-23T07:07:31.681Z,8.80
2023-02-23T07:10:01.246Z,8.80
2023-02-23T07:12:31.825Z,8.80
2023-02-23T07:15:01.054Z,8.80
2023-02-23T07:17:31.763Z,8.70
2023-02-23T07:20:01.222Z,8.70
2023-02-23T07:22:30.816Z,8.80
2023-02-23T07:25:00.272Z,8.80
2023-02-23T07:27:29.621Z,8.80
2023-02-23T07:30:00.574Z,8.80
2023-02-23T07:32:34.669Z,8.70
2023-02-23T07:35:03.869Z,8.80
2023-02-23T07:37:34.698Z,8.80
2023-02-23T07:40:05.235Z,8.80
2023-02-23T07:42:36.352Z,8.80
2023-02-23T07:45:09.863Z,8.80
2023-02-23T07:47:41.226Z,8.80
2023-02-23T07:50:14.344Z,8.90
2023-02-23T07:52:53.033Z,8.80
2023-02-23T07:55:22.648Z,8.80
2023-02-23T07:57:51.634Z,8.80
2023-02-23T08:00:21.524Z,8.70
2023-02-23T08:02:59.062Z,8.80
2023-02-23T08:05:28.467Z,8.80
2023-02-23T08:07:58.272Z,8.80
2023-02-23T08:10:27.901Z,8.70
2023-02-23T08:12:57.217Z,8.70
2023-02-23T08:15:28.706Z,8.70
2023-02-23T08:17:59.745Z,8.80
2023-02-23T08:20:29.489Z,8.90
2023-02-23T08:22:59.494Z,8.90
2023-02-23T08:25:29.190Z,9.00
2023-02-23T08:27:59.857Z,9.10
2023-02-23T08:30:30.674Z,9.20
2023-02-23T08:33:01.995Z,9.20
2023-02-23T08:35:34.185Z,9.20
2023-02-23T08:38:03.091Z,9.20
2023-02-23T08:40:36.092Z,9.20
2023-02-23T08:43:06.003Z,9.20
2023-02-23T08:45:38.303Z,9.30
2023-02-23T08:48:09.774Z,9.30
2023-02-23T08:50:39.085Z,9.30
2023-02-23T08:53:08.256Z,9.30
2023-02-23T08:55:40.533Z,9.30
2023-02-23T08:58:11.632Z,9.30
2023-02-23T09:00:46.548Z,9.30
2023-02-23T09:03:22.617Z,9.20
2023-02-23T09:05:57.639Z,9.20
2023-02-23T09:08:30.083Z,9.20
2023-02-23T09:11:02.200Z,9.20
2023-02-23T09:13:31.719Z,9.30
2023-02-23T09:16:08.190Z,9.30
2023-02-23T09:18:42.643Z,9.30
2023-02-23T09:21:23.845Z,9.30
2023-02-23T09:23:56.758Z,9.30
2023-02-23T09:26:34.418Z,9.30
2023-02-23T09:29:08.218Z,9.30
2023-02-23T09:31:45.312Z,9.30
2023-02-23T09:34:19.077Z,9.20
2023-02-23T09:36:48.438Z,9.30
2023-02-23T09:39:26.363Z,9.30
2023-02-23T09:42:18.545Z,9.40
2023-02-23T09:45:05.916Z,9.40
2023-02-23T09:48:00.340Z,9.40
2023-02-23T09:50:36.884Z,9.50
2023-02-23T09:53:10.676Z,9.20
2023-02-23T09:55:41.683Z,9.10
2023-02-23T09:58:21.939Z,9.00
2023-02-23T10:01:04.249Z,9.00
2023-02-23T10:03:38.523Z,9.00
2023-02-23T10:06:16.065Z,9.00
2023-02-23T10:09:02.086Z,9.00
2023-02-23T10:11:45.098Z,8.90
2023-02-23T10:14:32.859Z,9.00
2023-02-23T10:17:18.572Z,9.10
2023-02-23T10:19:59.228Z,9.20
2023-02-23T10:22:40.117Z,9.30
2023-02-23T10:25:15.085Z,9.40
2023-02-23T10:27:48.548Z,9.40
2023-02-23T10:30:28.582Z,9.40
2023-02-23T10:33:06.511Z,9.40
2023-02-23T10:35:36.652Z,9.40
2023-02-23T10:38:07.945Z,9.40
2023-02-23T10:40:36.883Z,9.50
2023-02-23T10:43:06.540Z,9.50
2023-02-23T10:45:43.389Z,9.60
2023-02-23T10:48:21.729Z,9.60
2023-02-23T10:50:55.344Z,9.60
2023-02-23T10:53:28.264Z,9.60
2023-02-23T10:56:05.105Z,9.80
2023-02-23T10:58:46.706Z,9.90
2023-02-23T11:01:18.927Z,10.20
2023-02-23T11:03:57.748Z,10.40
2023-02-23T11:06:35.442Z,10.60
2023-02-23T11:09:33.111Z,10.40
2023-02-23T11:12:22.136Z,10.30
2023-02-23T11:14:52.066Z,10.20
2023-02-23T11:17:31.247Z,10.20
2023-02-23T11:20:03.758Z,10.00
2023-02-23T11:22:38.323Z,9.60
2023-02-23T11:25:19.021Z,9.60
2023-02-23T11:27:51.729Z,9.60
2023-02-23T11:30:25.243Z,9.70
2023-02-23T11:32:56.076Z,9.60
2023-02-23T11:35:31.665Z,9.60
2023-02-23T11:38:00.825Z,9.60
2023-02-23T11:40:35.081Z,9.60
2023-02-23T11:43:11.234Z,9.60
2023-02-23T11:45:47.176Z,9.60
2023-02-23T11:48:23.976Z,9.70
2023-02-23T11:50:54.927Z,9.70
2023-02-23T11:53:31.894Z,9.60
2023-02-23T11:56:08.380Z,9.50
2023-02-23T11:58:41.034Z,9.50
2023-02-23T12:01:19.472Z,9.30
2023-02-23T12:03:55.317Z,9.30
2023-02-23T12:06:33.883Z,9.30
2023-02-23T12:09:19.360Z,9.40
2023-02-23T12:12:07.268Z,9.40
2023-02-23T12:14:47.490Z,9.40
2023-02-23T12:17:28.516Z,9.50
2023-02-23T12:20:06.200Z,9.60
2023-02-23T12:22:44.006Z,9.50
2023-02-23T12:25:25.168Z,9.50
2023-02-23T12:28:18.195Z,9.50
2023-02-23T12:30:58.013Z,9.70
2023-02-23T12:33:34.506Z,9.80
2023-02-23T12:36:11.850Z,9.70
2023-02-23T12:39:05.160Z,9.90
2023-02-23T12:41:41.898Z,10.20
2023-02-23T12:44:30.505Z,10.30
2023-02-23T12:55:18.830Z,10.10
2023-02-23T12:58:09.867Z,10.10
2023-02-23T13:01:21.843Z,9.80
2023-02-23T13:06:03.438Z,9.80
2023-02-23T13:07:46.425Z,9.80
2023-02-23T13:10:52.814Z,9.80
2023-02-23T13:13:40.912Z,9.90
2023-02-23T13:16:18.303Z,9.80
2023-02-23T13:18:55.141Z,9.80
2023-02-23T13:21:35.023Z,9.80
2023-02-23T13:24:11.364Z,10.00
2023-02-23T13:26:51.088Z,10.50
2023-02-23T13:30:01.629Z,10.70
2023-02-23T13:32:40.013Z,10.80
2023-02-23T13:35:24.584Z,10.70
2023-02-23T13:38:08.717Z,10.50
2023-02-23T13:40:55.204Z,10.30
2023-02-23T13:43:34.230Z,10.40
2023-02-23T13:46:28.813Z,10.30
2023-02-23T13:49:50.194Z,10.30
2023-02-23T13:52:34.046Z,10.20
2023-02-23T13:55:10.887Z,9.90
2023-02-23T13:57:47.832Z,10.00
2023-02-23T14:00:23.268Z,9.90
2023-02-23T14:02:58.490Z,9.80
2023-02-23T14:05:35.761Z,9.70
2023-02-23T16:04:10.779Z,9.60
2023-02-23T16:20:08.534Z,9.40
2023-02-23T20:50:10.541Z,8.00
2023-02-23T20:52:39.720Z,7.90
2023-02-23T20:55:10.878Z,7.90
2023-02-23T20:57:40.768Z,7.70
2023-02-23T21:00:11.390Z,7.70
2023-02-23T21:02:42.553Z,7.60
2023-02-23T21:05:13.262Z,7.50
2023-02-23T21:07:43.068Z,7.40
2023-02-23T21:10:14.102Z,7.40
2023-02-23T21:12:43.404Z,7.30
2023-02-23T21:15:15.068Z,7.30
2023-02-23T21:17:44.097Z,7.30
2023-02-23T21:20:16.223Z,7.20
2023-02-23T21:22:46.466Z,7.10
2023-02-23T21:25:17.617Z,7.10
2023-02-23T21:27:47.812Z,7.00
2023-02-23T21:30:19.799Z,7.00
2023-02-23T21:32:49.593Z,7.00
2023-02-23T21:35:22.317Z,6.90
2023-02-23T21:37:53.371Z,6.90
2023-02-23T21:40:23.485Z,6.90
2023-02-23T21:42:52.701Z,6.90
2023-02-23T21:45:21.637Z,6.80
2023-02-23T21:47:50.803Z,6.80
2023-02-23T21:50:21.394Z,6.80
2023-02-23T21:52:54.232Z,6.70
2023-02-23T21:55:23.256Z,6.70
2023-02-23T21:57:53.100Z,6.70
2023-02-23T22:00:23.090Z,6.60
2023-02-23T22:02:53.059Z,6.60
2023-02-23T22:05:31.244Z,6.60
2023-02-23T22:08:00.133Z,6.60
2023-02-23T22:10:29.707Z,6.60
2023-02-23T22:13:00.274Z,6.60
2023-02-23T22:15:29.869Z,6.60
2023-02-23T22:17:59.748Z,6.60
2023-02-23T22:20:31.915Z,6.60
2023-02-23T22:23:01.444Z,6.50
2023-02-23T22:25:30.411Z,6.50
2023-02-23T22:27:59.168Z,6.50
2023-02-23T22:30:28.737Z,6.50
2023-02-23T22:32:57.867Z,6.50
2023-02-23T22:35:27.095Z,6.50
2023-02-23T22:38:00.639Z,6.60
2023-02-23T22:40:30.219Z,6.60
2023-02-23T22:42:59.584Z,6.50
2023-02-23T22:45:30.341Z,6.50
2023-02-23T22:48:05.215Z,6.40
2023-02-23T22:50:35.214Z,6.40
2023-02-23T22:53:06.279Z,6.30
2023-02-23T22:55:35.499Z,6.30
2023-02-23T22:58:08.782Z,6.40
2023-02-23T23:00:37.690Z,6.30
2023-02-23T23:03:06.569Z,6.40
2023-02-23T23:05:35.740Z,6.30
2023-02-23T23:08:06.661Z,6.30
2023-02-23T23:10:35.682Z,6.30
2023-02-23T23:13:05.533Z,6.30
2023-02-23T23:15:34.759Z,6.40
2023-02-23T23:18:03.490Z,6.40
2023-02-23T23:20:32.366Z,6.50
2023-02-23T23:23:01.713Z,6.50
2023-02-23T23:25:32.182Z,6.50
2023-02-23T23:28:01.195Z,6.40
2023-02-23T23:30:30.626Z,6.30
2023-02-23T23:33:01.446Z,6.30
2023-02-23T23:35:30.410Z,6.30
2023-02-23T23:38:02.129Z,6.30
2023-02-23T23:40:36.000Z,6.30
2023-02-23T23:43:07.748Z,6.20
2023-02-23T23:45:41.109Z,6.20
2023-02-23T23:48:10.398Z,6.20
2023-02-23T23:50:39.803Z,6.20
2023-02-23T23:53:09.436Z,6.20
2023-02-23T23:55:39.955Z,6.20
2023-02-23T23:58:08.705Z,6.20
